sensor_id;sensor_type;location;lat;lon;timestamp;temperature;humidity
43949;DHT22;29429;51.074;13.764;2022-12-07T00:01:08;3.60;99.90
43949;DHT22;29429;51.074;13.764;2022-12-07T00:03:36;3.60;99.90
43949;DHT22;29429;51.074;13.764;2022-12-07T00:06:04;3.70;99.90
43949;DHT22;29429;51.074;13.764;2022-12-07T00:08:33;3.60;99.90
43949;DHT22;29429;51.074;13.764;2022-12-07T00:11:02;3.60;99.90
43949;DHT22;29429;51.074;13.764;2022-12-07T00:13:32;3.60;99.90
43949;DHT22;29429;51.074;13.764;2022-12-07T00:16:04;3.60;99.90
43949;DHT22;29429;51.074;13.764;2022-12-07T00:18:33;3.60;99.90
43949;DHT22;29429;51.074;13.764;2022-12-07T00:21:05;3.60;99.90
43949;DHT22;29429;51.074;13.764;2022-12-07T00:23:37;3.60;99.90
43949;DHT22;29429;51.074;13.764;2022-12-07T00:26:10;3.60;99.90
43949;DHT22;29429;51.074;13.764;2022-12-07T00:28:41;3.60;99.90
43949;DHT22;29429;51.074;13.764;2022-12-07T00:31:12;3.70;99.90
43949;DHT22;29429;51.074;13.764;2022-12-07T00:33:41;3.50;99.90
43949;DHT22;29429;51.074;13.764;2022-12-07T00:36:09;3.60;99.90
43949;DHT22;29429;51.074;13.764;2022-12-07T00:38:39;3.60;99.90
43949;DHT22;29429;51.074;13.764;2022-12-07T00:41:16;3.50;99.90
43949;DHT22;29429;51.074;13.764;2022-12-07T00:43:46;3.50;99.90
43949;DHT22;29429;51.074;13.764;2022-12-07T00:46:14;3.60;99.90
43949;DHT22;29429;51.074;13.764;2022-12-07T00:48:42;3.60;99.90
43949;DHT22;29429;51.074;13.764;2022-12-07T00:51:09;3.60;99.90
43949;DHT22;29429;51.074;13.764;2022-12-07T00:53:38;3.70;99.90
43949;DHT22;29429;51.074;13.764;2022-12-07T00:56:31;3.50;99.90
43949;DHT22;29429;51.074;13.764;2022-12-07T00:58:59;3.60;99.90
43949;DHT22;29429;51.074;13.764;2022-12-07T01:01:28;3.90;99.90
43949;DHT22;29429;51.074;13.764;2022-12-07T01:03:57;3.70;99.90
43949;DHT22;29429;51.074;13.764;2022-12-07T01:06:25;3.60;99.90
43949;DHT22;29429;51.074;13.764;2022-12-07T01:08:52;3.60;99.90
43949;DHT22;29429;51.074;13.764;2022-12-07T01:11:21;3.60;99.90
43949;DHT22;29429;51.074;13.764;2022-12-07T01:13:50;3.60;99.90
43949;DHT22;29429;51.074;13.764;2022-12-07T01:16:18;3.60;99.90
43949;DHT22;29429;51.074;13.764;2022-12-07T01:18:47;3.70;99.90
43949;DHT22;29429;51.074;13.764;2022-12-07T01:21:25;3.50;99.90
43949;DHT22;29429;51.074;13.764;2022-12-07T01:23:54;3.60;99.90
43949;DHT22;29429;51.074;13.764;2022-12-07T01:26:24;3.60;99.90
43949;DHT22;29429;51.074;13.764;2022-12-07T01:28:52;3.30;99.90
43949;DHT22;29429;51.074;13.764;2022-12-07T01:31:22;3.70;99.90
43949;DHT22;29429;51.074;13.764;2022-12-07T01:33:51;3.70;99.90
43949;DHT22;29429;51.074;13.764;2022-12-07T01:36:21;3.70;99.90
43949;DHT22;29429;51.074;13.764;2022-12-07T01:38:49;3.70;99.90
43949;DHT22;29429;51.074;13.764;2022-12-07T01:41:20;3.90;99.90
43949;DHT22;29429;51.074;13.764;2022-12-07T01:44:07;3.70;99.90
43949;DHT22;29429;51.074;13.764;2022-12-07T01:46:39;3.70;99.90
43949;DHT22;29429;51.074;13.764;2022-12-07T01:49:12;3.80;99.90
43949;DHT22;29429;51.074;13.764;2022-12-07T01:52:06;3.80;99.90
43949;DHT22;29429;51.074;13.764;2022-12-07T01:54:35;3.80;99.90
43949;DHT22;29429;51.074;13.764;2022-12-07T01:57:03;3.80;99.90
43949;DHT22;29429;51.074;13.764;2022-12-07T01:59:31;3.80;99.90
43949;DHT22;29429;51.074;13.764;2022-12-07T02:01:58;3.80;99.90
43949;DHT22;29429;51.074;13.764;2022-12-07T02:04:25;3.80;99.90
43949;DHT22;29429;51.074;13.764;2022-12-07T02:06:53;3.80;99.90
43949;DHT22;29429;51.074;13.764;2022-12-07T02:09:21;3.90;99.90
43949;DHT22;29429;51.074;13.764;2022-12-07T02:11:48;3.90;99.90
43949;DHT22;29429;51.074;13.764;2022-12-07T02:14:15;3.80;99.90
43949;DHT22;29429;51.074;13.764;2022-12-07T02:16:45;3.80;99.90
43949;DHT22;29429;51.074;13.764;2022-12-07T02:21:57;3.80;99.90
43949;DHT22;29429;51.074;13.764;2022-12-07T02:25:13;3.70;99.90
43949;DHT22;29429;51.074;13.764;2022-12-07T02:30:34;3.40;99.90
43949;DHT22;29429;51.074;13.764;2022-12-07T02:33:16;3.30;99.90
43949;DHT22;29429;51.074;13.764;2022-12-07T02:35:59;3.30;99.90
43949;DHT22;29429;51.074;13.764;2022-12-07T02:38:43;3.10;99.90
43949;DHT22;29429;51.074;13.764;2022-12-07T02:41:21;3.00;99.90
43949;DHT22;29429;51.074;13.764;2022-12-07T02:43:56;2.90;99.90
43949;DHT22;29429;51.074;13.764;2022-12-07T02:46:30;2.80;99.90
43949;DHT22;29429;51.074;13.764;2022-12-07T02:49:00;2.70;99.90
43949;DHT22;29429;51.074;13.764;2022-12-07T02:51:31;2.60;99.90
43949;DHT22;29429;51.074;13.764;2022-12-07T02:53:59;2.50;99.90
43949;DHT22;29429;51.074;13.764;2022-12-07T03:07:21;2.40;99.90
43949;DHT22;29429;51.074;13.764;2022-12-07T03:09:53;2.20;99.90
43949;DHT22;29429;51.074;13.764;2022-12-07T03:12:29;2.40;99.90
43949;DHT22;29429;51.074;13.764;2022-12-07T03:15:09;2.40;99.90
43949;DHT22;29429;51.074;13.764;2022-12-07T03:17:53;2.40;99.90
43949;DHT22;29429;51.074;13.764;2022-12-07T03:20:23;2.50;99.90
43949;DHT22;29429;51.074;13.764;2022-12-07T03:22:53;2.50;99.90
43949;DHT22;29429;51.074;13.764;2022-12-07T03:25:21;2.60;99.90
43949;DHT22;29429;51.074;13.764;2022-12-07T03:27:57;2.60;99.90
43949;DHT22;29429;51.074;13.764;2022-12-07T03:30:39;2.50;99.90
43949;DHT22;29429;51.074;13.764;2022-12-07T03:33:36;2.50;99.90
43949;DHT22;29429;51.074;13.764;2022-12-07T03:36:54;2.50;99.90
43949;DHT22;29429;51.074;13.764;2022-12-07T03:39:19;2.30;99.90
43949;DHT22;29429;51.074;13.764;2022-12-07T03:41:48;2.30;99.90
43949;DHT22;29429;51.074;13.764;2022-12-07T03:44:15;2.20;99.90
43949;DHT22;29429;51.074;13.764;2022-12-07T03:55:30;2.30;99.90
43949;DHT22;29429;51.074;13.764;2022-12-07T03:57:43;2.30;99.90
43949;DHT22;29429;51.074;13.764;2022-12-07T04:00:12;2.20;99.90
43949;DHT22;29429;51.074;13.764;2022-12-07T04:02:41;2.20;99.90
43949;DHT22;29429;51.074;13.764;2022-12-07T04:05:09;2.20;99.90
43949;DHT22;29429;51.074;13.764;2022-12-07T04:18:27;2.20;99.90
43949;DHT22;29429;51.074;13.764;2022-12-07T04:20:54;2.30;99.90
43949;DHT22;29429;51.074;13.764;2022-12-07T04:23:21;2.30;99.90
43949;DHT22;29429;51.074;13.764;2022-12-07T04:25:48;2.30;99.90
43949;DHT22;29429;51.074;13.764;2022-12-07T04:28:15;2.20;99.90
43949;DHT22;29429;51.074;13.764;2022-12-07T04:30:42;2.30;99.90
43949;DHT22;29429;51.074;13.764;2022-12-07T04:33:08;2.10;99.90
43949;DHT22;29429;51.074;13.764;2022-12-07T04:35:35;2.00;99.90
43949;DHT22;29429;51.074;13.764;2022-12-07T04:38:02;2.00;99.90
43949;DHT22;29429;51.074;13.764;2022-12-07T04:40:29;1.90;99.90
43949;DHT22;29429;51.074;13.764;2022-12-07T04:42:56;1.90;99.90
43949;DHT22;29429;51.074;13.764;2022-12-07T04:45:23;1.80;99.90
43949;DHT22;29429;51.074;13.764;2022-12-07T04:47:50;1.80;99.90
43949;DHT22;29429;51.074;13.764;2022-12-07T04:50:17;1.80;99.90
43949;DHT22;29429;51.074;13.764;2022-12-07T04:52:44;1.70;99.90
43949;DHT22;29429;51.074;13.764;2022-12-07T04:55:10;1.70;99.90
43949;DHT22;29429;51.074;13.764;2022-12-07T04:57:37;1.80;99.90
43949;DHT22;29429;51.074;13.764;2022-12-07T05:00:04;1.60;99.90
43949;DHT22;29429;51.074;13.764;2022-12-07T05:02:32;1.60;99.90
43949;DHT22;29429;51.074;13.764;2022-12-07T05:04:59;1.50;99.90
43949;DHT22;29429;51.074;13.764;2022-12-07T05:07:26;1.50;99.90
43949;DHT22;29429;51.074;13.764;2022-12-07T05:09:52;1.40;99.90
43949;DHT22;29429;51.074;13.764;2022-12-07T05:12:19;1.50;99.90
43949;DHT22;29429;51.074;13.764;2022-12-07T05:14:46;1.50;99.90
43949;DHT22;29429;51.074;13.764;2022-12-07T05:17:13;1.60;99.90
43949;DHT22;29429;51.074;13.764;2022-12-07T05:19:40;1.60;99.90
43949;DHT22;29429;51.074;13.764;2022-12-07T05:22:07;1.70;99.90
43949;DHT22;29429;51.074;13.764;2022-12-07T05:24:34;1.80;99.90
43949;DHT22;29429;51.074;13.764;2022-12-07T05:27:01;1.80;99.90
43949;DHT22;29429;51.074;13.764;2022-12-07T05:29:28;1.90;99.90
43949;DHT22;29429;51.074;13.764;2022-12-07T05:31:55;1.90;99.90
43949;DHT22;29429;51.074;13.764;2022-12-07T05:34:22;1.90;99.90
43949;DHT22;29429;51.074;13.764;2022-12-07T05:36:49;2.00;99.90
43949;DHT22;29429;51.074;13.764;2022-12-07T05:39:17;2.10;99.90
43949;DHT22;29429;51.074;13.764;2022-12-07T05:41:43;2.20;99.90
43949;DHT22;29429;51.074;13.764;2022-12-07T05:44:56;2.30;99.90
43949;DHT22;29429;51.074;13.764;2022-12-07T05:47:23;2.50;99.90
43949;DHT22;29429;51.074;13.764;2022-12-07T05:53:00;2.40;99.90
43949;DHT22;29429;51.074;13.764;2022-12-07T05:55:34;2.30;99.90
43949;DHT22;29429;51.074;13.764;2022-12-07T05:58:01;2.50;99.90
43949;DHT22;29429;51.074;13.764;2022-12-07T06:00:54;2.50;99.90
43949;DHT22;29429;51.074;13.764;2022-12-07T06:03:22;2.60;99.90
43949;DHT22;29429;51.074;13.764;2022-12-07T06:05:49;2.60;99.90
43949;DHT22;29429;51.074;13.764;2022-12-07T06:08:28;2.60;99.90
43949;DHT22;29429;51.074;13.764;2022-12-07T06:11:01;2.70;99.90
43949;DHT22;29429;51.074;13.764;2022-12-07T06:13:49;2.70;99.90
43949;DHT22;29429;51.074;13.764;2022-12-07T06:16:16;2.90;99.90
43949;DHT22;29429;51.074;13.764;2022-12-07T06:18:43;2.90;99.90
43949;DHT22;29429;51.074;13.764;2022-12-07T06:21:13;2.90;99.90
43949;DHT22;29429;51.074;13.764;2022-12-07T06:23:43;2.90;99.90
43949;DHT22;29429;51.074;13.764;2022-12-07T06:26:13;3.00;99.90
43949;DHT22;29429;51.074;13.764;2022-12-07T06:28:40;3.00;99.90
43949;DHT22;29429;51.074;13.764;2022-12-07T06:31:08;3.10;99.90
43949;DHT22;29429;51.074;13.764;2022-12-07T06:33:39;3.10;99.90
43949;DHT22;29429;51.074;13.764;2022-12-07T06:36:07;3.10;99.90
43949;DHT22;29429;51.074;13.764;2022-12-07T06:38:34;3.20;99.90
43949;DHT22;29429;51.074;13.764;2022-12-07T06:41:02;3.20;99.90
43949;DHT22;29429;51.074;13.764;2022-12-07T06:43:29;3.30;99.90
43949;DHT22;29429;51.074;13.764;2022-12-07T06:45:56;3.50;99.90
43949;DHT22;29429;51.074;13.764;2022-12-07T06:48:23;3.40;99.90
43949;DHT22;29429;51.074;13.764;2022-12-07T06:50:51;3.60;99.90
43949;DHT22;29429;51.074;13.764;2022-12-07T06:53:30;3.50;99.90
43949;DHT22;29429;51.074;13.764;2022-12-07T06:55:57;3.50;99.90
43949;DHT22;29429;51.074;13.764;2022-12-07T06:58:29;3.50;99.90
43949;DHT22;29429;51.074;13.764;2022-12-07T07:01:00;3.60;99.90
43949;DHT22;29429;51.074;13.764;2022-12-07T07:03:38;3.60;99.90
43949;DHT22;29429;51.074;13.764;2022-12-07T07:06:06;3.60;99.90
43949;DHT22;29429;51.074;13.764;2022-12-07T07:08:34;3.70;99.90
43949;DHT22;29429;51.074;13.764;2022-12-07T07:11:02;3.70;99.90
43949;DHT22;29429;51.074;13.764;2022-12-07T07:13:29;3.70;99.90
43949;DHT22;29429;51.074;13.764;2022-12-07T07:15:56;3.70;99.90
43949;DHT22;29429;51.074;13.764;2022-12-07T07:18:24;3.60;99.90
43949;DHT22;29429;51.074;13.764;2022-12-07T07:20:51;3.60;99.90
43949;DHT22;29429;51.074;13.764;2022-12-07T07:23:20;3.60;99.90
43949;DHT22;29429;51.074;13.764;2022-12-07T07:25:47;3.60;99.90
43949;DHT22;29429;51.074;13.764;2022-12-07T07:28:17;3.60;99.90
43949;DHT22;29429;51.074;13.764;2022-12-07T07:30:44;3.50;99.90
43949;DHT22;29429;51.074;13.764;2022-12-07T07:33:11;3.40;99.90
43949;DHT22;29429;51.074;13.764;2022-12-07T07:35:38;3.30;99.90
43949;DHT22;29429;51.074;13.764;2022-12-07T07:38:06;3.30;99.90
43949;DHT22;29429;51.074;13.764;2022-12-07T07:40:33;3.10;99.90
43949;DHT22;29429;51.074;13.764;2022-12-07T07:43:01;3.20;99.90
43949;DHT22;29429;51.074;13.764;2022-12-07T07:45:31;3.20;99.90
43949;DHT22;29429;51.074;13.764;2022-12-07T07:47:58;3.30;99.90
43949;DHT22;29429;51.074;13.764;2022-12-07T07:50:25;3.20;99.90
43949;DHT22;29429;51.074;13.764;2022-12-07T07:52:52;3.20;99.90
43949;DHT22;29429;51.074;13.764;2022-12-07T07:55:19;3.20;99.90
43949;DHT22;29429;51.074;13.764;2022-12-07T07:57:46;3.30;99.90
43949;DHT22;29429;51.074;13.764;2022-12-07T08:00:19;3.30;99.90
43949;DHT22;29429;51.074;13.764;2022-12-07T08:02:47;3.40;99.90
43949;DHT22;29429;51.074;13.764;2022-12-07T08:05:14;3.40;99.90
43949;DHT22;29429;51.074;13.764;2022-12-07T08:07:44;3.60;99.90
43949;DHT22;29429;51.074;13.764;2022-12-07T08:10:40;3.60;99.90
43949;DHT22;29429;51.074;13.764;2022-12-07T08:17:59;3.10;99.90
43949;DHT22;29429;51.074;13.764;2022-12-07T08:20:50;3.80;99.90
43949;DHT22;29429;51.074;13.764;2022-12-07T08:24:23;3.80;99.90
43949;DHT22;29429;51.074;13.764;2022-12-07T08:27:15;4.00;99.90
43949;DHT22;29429;51.074;13.764;2022-12-07T08:35:07;4.10;99.90
43949;DHT22;29429;51.074;13.764;2022-12-07T08:37:35;4.60;99.90
43949;DHT22;29429;51.074;13.764;2022-12-07T08:40:03;4.60;99.90
43949;DHT22;29429;51.074;13.764;2022-12-07T08:42:31;4.30;99.90
43949;DHT22;29429;51.074;13.764;2022-12-07T08:45:08;4.30;99.90
43949;DHT22;29429;51.074;13.764;2022-12-07T08:47:38;4.30;99.90
43949;DHT22;29429;51.074;13.764;2022-12-07T08:50:18;4.40;99.90
43949;DHT22;29429;51.074;13.764;2022-12-07T08:52:48;4.50;99.90
43949;DHT22;29429;51.074;13.764;2022-12-07T08:55:18;4.50;99.90
43949;DHT22;29429;51.074;13.764;2022-12-07T08:57:48;4.60;99.90
43949;DHT22;29429;51.074;13.764;2022-12-07T09:07:55;4.60;99.90
43949;DHT22;29429;51.074;13.764;2022-12-07T09:13:43;4.90;99.90
43949;DHT22;29429;51.074;13.764;2022-12-07T09:16:17;5.10;99.90
43949;DHT22;29429;51.074;13.764;2022-12-07T09:18:47;5.10;99.90
43949;DHT22;29429;51.074;13.764;2022-12-07T09:21:14;5.30;99.90
43949;DHT22;29429;51.074;13.764;2022-12-07T09:23:41;5.40;99.90
43949;DHT22;29429;51.074;13.764;2022-12-07T09:26:10;5.40;99.90
43949;DHT22;29429;51.074;13.764;2022-12-07T09:28:38;5.50;99.90
43949;DHT22;29429;51.074;13.764;2022-12-07T09:31:06;5.60;99.90
43949;DHT22;29429;51.074;13.764;2022-12-07T09:33:56;5.60;99.90
43949;DHT22;29429;51.074;13.764;2022-12-07T09:36:30;5.60;99.90
43949;DHT22;29429;51.074;13.764;2022-12-07T09:39:25;5.70;99.90
43949;DHT22;29429;51.074;13.764;2022-12-07T09:45:27;5.70;99.90
43949;DHT22;29429;51.074;13.764;2022-12-07T09:47:59;5.80;99.90
43949;DHT22;29429;51.074;13.764;2022-12-07T09:53:49;5.90;99.90
43949;DHT22;29429;51.074;13.764;2022-12-07T10:00:41;6.20;99.90
43949;DHT22;29429;51.074;13.764;2022-12-07T10:06:45;6.20;99.90
43949;DHT22;29429;51.074;13.764;2022-12-07T10:09:15;6.40;99.90
43949;DHT22;29429;51.074;13.764;2022-12-07T10:15:05;6.50;99.90
43949;DHT22;29429;51.074;13.764;2022-12-07T10:17:51;6.60;99.90
43949;DHT22;29429;51.074;13.764;2022-12-07T10:20:25;7.20;99.90
43949;DHT22;29429;51.074;13.764;2022-12-07T10:22:54;6.80;99.90
43949;DHT22;29429;51.074;13.764;2022-12-07T10:25:28;6.90;99.90
43949;DHT22;29429;51.074;13.764;2022-12-07T10:28:02;6.80;99.90
43949;DHT22;29429;51.074;13.764;2022-12-07T10:33:50;7.20;99.90
43949;DHT22;29429;51.074;13.764;2022-12-07T10:36:21;7.30;99.90
43949;DHT22;29429;51.074;13.764;2022-12-07T10:45:09;7.20;99.90
43949;DHT22;29429;51.074;13.764;2022-12-07T11:01:11;6.40;99.90
43949;DHT22;29429;51.074;13.764;2022-12-07T11:21:18;6.10;99.90
43949;DHT22;29429;51.074;13.764;2022-12-07T11:24:32;6.30;99.90
43949;DHT22;29429;51.074;13.764;2022-12-07T11:37:43;6.00;99.90
43949;DHT22;29429;51.074;13.764;2022-12-07T11:40:33;5.90;99.90
43949;DHT22;29429;51.074;13.764;2022-12-07T11:49:17;5.70;99.90
43949;DHT22;29429;51.074;13.764;2022-12-07T11:51:51;5.40;99.90
43949;DHT22;29429;51.074;13.764;2022-12-07T11:54:30;5.20;99.90
43949;DHT22;29429;51.074;13.764;2022-12-07T11:57:04;5.10;99.90
43949;DHT22;29429;51.074;13.764;2022-12-07T12:00:18;5.00;99.90
43949;DHT22;29429;51.074;13.764;2022-12-07T12:03:02;4.80;99.90
43949;DHT22;29429;51.074;13.764;2022-12-07T12:05:36;4.80;99.90
43949;DHT22;29429;51.074;13.764;2022-12-07T12:10:58;4.70;99.90
43949;DHT22;29429;51.074;13.764;2022-12-07T12:17:07;4.60;99.90
43949;DHT22;29429;51.074;13.764;2022-12-07T12:22:32;4.60;99.90
43949;DHT22;29429;51.074;13.764;2022-12-07T12:25:05;4.70;99.90
43949;DHT22;29429;51.074;13.764;2022-12-07T12:27:34;4.80;99.90
43949;DHT22;29429;51.074;13.764;2022-12-07T12:30:05;4.90;99.90
43949;DHT22;29429;51.074;13.764;2022-12-07T12:32:41;4.90;99.90
43949;DHT22;29429;51.074;13.764;2022-12-07T12:35:30;4.90;99.90
43949;DHT22;29429;51.074;13.764;2022-12-07T12:40:57;5.10;99.90
43949;DHT22;29429;51.074;13.764;2022-12-07T12:43:44;5.20;99.90
43949;DHT22;29429;51.074;13.764;2022-12-07T12:47:38;5.20;99.90
43949;DHT22;29429;51.074;13.764;2022-12-07T12:50:12;5.30;99.90
43949;DHT22;29429;51.074;13.764;2022-12-07T12:57:39;5.50;99.90
43949;DHT22;29429;51.074;13.764;2022-12-07T13:00:20;5.50;99.90
43949;DHT22;29429;51.074;13.764;2022-12-07T13:05:27;5.40;99.90
43949;DHT22;29429;51.074;13.764;2022-12-07T13:07:56;5.60;99.90
43949;DHT22;29429;51.074;13.764;2022-12-07T13:13:01;5.50;99.90
43949;DHT22;29429;51.074;13.764;2022-12-07T13:18:36;4.70;99.90
43949;DHT22;29429;51.074;13.764;2022-12-07T13:29:42;3.50;99.90
43949;DHT22;29429;51.074;13.764;2022-12-07T13:32:03;3.40;99.90
43949;DHT22;29429;51.074;13.764;2022-12-07T13:39:57;3.30;99.90
43949;DHT22;29429;51.074;13.764;2022-12-07T13:42:33;3.30;99.90
43949;DHT22;29429;51.074;13.764;2022-12-07T13:45:16;3.30;99.90
43949;DHT22;29429;51.074;13.764;2022-12-07T13:47:49;3.30;99.90
43949;DHT22;29429;51.074;13.764;2022-12-07T13:50:24;3.30;99.90
43949;DHT22;29429;51.074;13.764;2022-12-07T13:52:54;3.60;99.90
43949;DHT22;29429;51.074;13.764;2022-12-07T13:55:25;3.40;99.90
43949;DHT22;29429;51.074;13.764;2022-12-07T13:57:54;3.20;99.90
43949;DHT22;29429;51.074;13.764;2022-12-07T14:00:26;3.60;99.90
43949;DHT22;29429;51.074;13.764;2022-12-07T14:03:19;3.60;99.90
43949;DHT22;29429;51.074;13.764;2022-12-07T14:09:16;3.70;99.90
43949;DHT22;29429;51.074;13.764;2022-12-07T14:11:52;3.70;99.90
43949;DHT22;29429;51.074;13.764;2022-12-07T14:14:27;3.70;99.90
43949;DHT22;29429;51.074;13.764;2022-12-07T14:17:11;3.70;99.90
43949;DHT22;29429;51.074;13.764;2022-12-07T14:19:46;4.30;99.90
43949;DHT22;29429;51.074;13.764;2022-12-07T14:22:21;3.60;99.90
43949;DHT22;29429;51.074;13.764;2022-12-07T14:24:50;3.60;99.90
43949;DHT22;29429;51.074;13.764;2022-12-07T14:27:29;3.60;99.90
43949;DHT22;29429;51.074;13.764;2022-12-07T14:30:00;3.60;99.90
43949;DHT22;29429;51.074;13.764;2022-12-07T14:32:36;3.70;99.90
43949;DHT22;29429;51.074;13.764;2022-12-07T14:37:43;3.80;99.90
43949;DHT22;29429;51.074;13.764;2022-12-07T14:40:13;3.80;99.90
43949;DHT22;29429;51.074;13.764;2022-12-07T14:42:43;3.70;99.90
43949;DHT22;29429;51.074;13.764;2022-12-07T14:45:17;3.80;99.90
43949;DHT22;29429;51.074;13.764;2022-12-07T14:47:48;3.80;99.90
43949;DHT22;29429;51.074;13.764;2022-12-07T14:50:46;3.90;99.90
43949;DHT22;29429;51.074;13.764;2022-12-07T14:53:48;3.90;99.90
43949;DHT22;29429;51.074;13.764;2022-12-07T14:56:20;3.80;99.90
43949;DHT22;29429;51.074;13.764;2022-12-07T14:58:47;4.00;99.90
43949;DHT22;29429;51.074;13.764;2022-12-07T15:01:20;4.10;99.90
43949;DHT22;29429;51.074;13.764;2022-12-07T15:03:47;4.10;99.90
43949;DHT22;29429;51.074;13.764;2022-12-07T15:06:15;4.10;99.90
43949;DHT22;29429;51.074;13.764;2022-12-07T15:08:48;4.10;99.90
43949;DHT22;29429;51.074;13.764;2022-12-07T15:11:16;4.10;99.90
43949;DHT22;29429;51.074;13.764;2022-12-07T15:13:44;4.10;99.90
43949;DHT22;29429;51.074;13.764;2022-12-07T15:16:29;4.20;99.90
43949;DHT22;29429;51.074;13.764;2022-12-07T15:19:18;4.10;99.90
43949;DHT22;29429;51.074;13.764;2022-12-07T15:21:54;4.20;99.90
43949;DHT22;29429;51.074;13.764;2022-12-07T15:24:21;4.10;99.90
43949;DHT22;29429;51.074;13.764;2022-12-07T15:26:50;4.10;99.90
43949;DHT22;29429;51.074;13.764;2022-12-07T15:29:21;4.30;99.90
43949;DHT22;29429;51.074;13.764;2022-12-07T15:31:50;4.10;99.90
43949;DHT22;29429;51.074;13.764;2022-12-07T15:34:25;4.10;99.90
43949;DHT22;29429;51.074;13.764;2022-12-07T15:37:07;4.30;99.90
43949;DHT22;29429;51.074;13.764;2022-12-07T15:43:17;4.30;99.90
43949;DHT22;29429;51.074;13.764;2022-12-07T15:46:03;4.10;99.90
43949;DHT22;29429;51.074;13.764;2022-12-07T15:48:31;4.10;99.90
43949;DHT22;29429;51.074;13.764;2022-12-07T15:51:04;4.10;99.90
43949;DHT22;29429;51.074;13.764;2022-12-07T15:53:32;4.00;99.90
43949;DHT22;29429;51.074;13.764;2022-12-07T15:56:00;4.00;99.90
43949;DHT22;29429;51.074;13.764;2022-12-07T15:58:27;4.00;99.90
43949;DHT22;29429;51.074;13.764;2022-12-07T16:00:54;3.80;99.90
43949;DHT22;29429;51.074;13.764;2022-12-07T16:03:21;3.90;99.90
43949;DHT22;29429;51.074;13.764;2022-12-07T16:05:48;3.90;99.90
43949;DHT22;29429;51.074;13.764;2022-12-07T16:08:19;3.70;99.90
43949;DHT22;29429;51.074;13.764;2022-12-07T16:10:49;3.70;99.90
43949;DHT22;29429;51.074;13.764;2022-12-07T16:13:25;3.50;99.90
43949;DHT22;29429;51.074;13.764;2022-12-07T16:15:54;4.10;99.90
43949;DHT22;29429;51.074;13.764;2022-12-07T16:18:23;3.60;99.90
43949;DHT22;29429;51.074;13.764;2022-12-07T16:20:50;3.60;99.90
43949;DHT22;29429;51.074;13.764;2022-12-07T16:23:17;3.60;99.90
43949;DHT22;29429;51.074;13.764;2022-12-07T16:25:44;3.60;99.90
43949;DHT22;29429;51.074;13.764;2022-12-07T16:28:37;3.60;99.90
43949;DHT22;29429;51.074;13.764;2022-12-07T16:31:05;3.60;99.90
43949;DHT22;29429;51.074;13.764;2022-12-07T16:33:42;3.60;99.90
43949;DHT22;29429;51.074;13.764;2022-12-07T16:40:53;3.70;99.90
43949;DHT22;29429;51.074;13.764;2022-12-07T16:44:09;3.70;99.90
43949;DHT22;29429;51.074;13.764;2022-12-07T16:46:50;3.80;99.90
43949;DHT22;29429;51.074;13.764;2022-12-07T16:52:24;3.90;99.90
43949;DHT22;29429;51.074;13.764;2022-12-07T16:55:09;3.80;99.90
43949;DHT22;29429;51.074;13.764;2022-12-07T16:57:56;3.80;99.90
43949;DHT22;29429;51.074;13.764;2022-12-07T17:00:24;3.90;99.90
43949;DHT22;29429;51.074;13.764;2022-12-07T17:02:51;3.90;99.90
43949;DHT22;29429;51.074;13.764;2022-12-07T17:05:21;3.90;99.90
43949;DHT22;29429;51.074;13.764;2022-12-07T17:07:55;3.90;99.90
43949;DHT22;29429;51.074;13.764;2022-12-07T17:10:29;3.90;99.90
43949;DHT22;29429;51.074;13.764;2022-12-07T17:12:56;3.90;99.90
43949;DHT22;29429;51.074;13.764;2022-12-07T17:15:24;3.90;99.90
43949;DHT22;29429;51.074;13.764;2022-12-07T17:17:57;3.70;99.90
43949;DHT22;29429;51.074;13.764;2022-12-07T17:20:31;3.90;99.90
43949;DHT22;29429;51.074;13.764;2022-12-07T17:22:59;3.70;99.90
43949;DHT22;29429;51.074;13.764;2022-12-07T17:25:26;3.80;99.90
43949;DHT22;29429;51.074;13.764;2022-12-07T17:27:55;3.80;99.90
43949;DHT22;29429;51.074;13.764;2022-12-07T17:30:22;3.80;99.90
43949;DHT22;29429;51.074;13.764;2022-12-07T17:32:51;3.80;99.90
43949;DHT22;29429;51.074;13.764;2022-12-07T17:35:21;3.80;99.90
43949;DHT22;29429;51.074;13.764;2022-12-07T17:37:48;3.80;99.90
43949;DHT22;29429;51.074;13.764;2022-12-07T17:40:16;3.80;99.90
43949;DHT22;29429;51.074;13.764;2022-12-07T17:42:46;3.70;99.90
43949;DHT22;29429;51.074;13.764;2022-12-07T17:45:16;3.80;99.90
43949;DHT22;29429;51.074;13.764;2022-12-07T17:47:43;3.70;99.90
43949;DHT22;29429;51.074;13.764;2022-12-07T17:50:10;3.80;99.90
43949;DHT22;29429;51.074;13.764;2022-12-07T17:52:38;3.60;99.90
43949;DHT22;29429;51.074;13.764;2022-12-07T17:55:29;3.70;99.90
43949;DHT22;29429;51.074;13.764;2022-12-07T17:58:14;3.70;99.90
43949;DHT22;29429;51.074;13.764;2022-12-07T18:00:41;4.00;99.90
43949;DHT22;29429;51.074;13.764;2022-12-07T18:03:08;3.80;99.90
43949;DHT22;29429;51.074;13.764;2022-12-07T18:05:36;3.80;99.90
43949;DHT22;29429;51.074;13.764;2022-12-07T18:08:04;3.90;99.90
43949;DHT22;29429;51.074;13.764;2022-12-07T18:10:31;3.90;99.90
43949;DHT22;29429;51.074;13.764;2022-12-07T18:12:58;4.00;99.90
43949;DHT22;29429;51.074;13.764;2022-12-07T18:15:44;4.10;99.90
43949;DHT22;29429;51.074;13.764;2022-12-07T18:18:11;4.10;99.90
43949;DHT22;29429;51.074;13.764;2022-12-07T18:20:37;4.20;99.90
43949;DHT22;29429;51.074;13.764;2022-12-07T18:23:04;4.10;99.90
43949;DHT22;29429;51.074;13.764;2022-12-07T18:25:31;4.10;99.90
43949;DHT22;29429;51.074;13.764;2022-12-07T18:27:58;4.10;99.90
43949;DHT22;29429;51.074;13.764;2022-12-07T18:30:25;3.90;99.90
43949;DHT22;29429;51.074;13.764;2022-12-07T18:33:12;3.80;99.90
43949;DHT22;29429;51.074;13.764;2022-12-07T18:35:39;3.80;99.90
43949;DHT22;29429;51.074;13.764;2022-12-07T18:38:13;3.70;99.90
43949;DHT22;29429;51.074;13.764;2022-12-07T18:40:51;3.60;99.90
43949;DHT22;29429;51.074;13.764;2022-12-07T18:43:28;3.50;99.90
43949;DHT22;29429;51.074;13.764;2022-12-07T18:45:56;3.70;99.90
43949;DHT22;29429;51.074;13.764;2022-12-07T18:48:23;3.50;99.90
43949;DHT22;29429;51.074;13.764;2022-12-07T18:51:00;3.30;99.90
43949;DHT22;29429;51.074;13.764;2022-12-07T18:53:30;3.50;99.90
43949;DHT22;29429;51.074;13.764;2022-12-07T18:56:02;3.40;99.90
43949;DHT22;29429;51.074;13.764;2022-12-07T18:58:41;3.40;99.90
43949;DHT22;29429;51.074;13.764;2022-12-07T19:01:29;3.30;99.90
43949;DHT22;29429;51.074;13.764;2022-12-07T19:04:00;3.30;99.90
43949;DHT22;29429;51.074;13.764;2022-12-07T19:06:28;3.30;99.90
43949;DHT22;29429;51.074;13.764;2022-12-07T19:08:59;3.30;99.90
43949;DHT22;29429;51.074;13.764;2022-12-07T19:11:29;3.30;99.90
43949;DHT22;29429;51.074;13.764;2022-12-07T19:18:30;3.30;99.90
43949;DHT22;29429;51.074;13.764;2022-12-07T19:21:01;3.30;99.90